sensor_id;sensor_type;location;lat;lon;timestamp;P1;durP1;ratioP1;P2;durP2;ratioP2
59907;SDS011;61804;54.926;73.496;2022-11-23T00:01:41;59.97;;;43.67;;
59907;SDS011;61804;54.926;73.496;2022-11-23T00:04:14;4.97;;;1.73;;
59907;SDS011;61804;54.926;73.496;2022-11-23T00:06:42;2.53;;;1.85;;
59907;SDS011;61804;54.926;73.496;2022-11-23T00:09:11;1.70;;;1.15;;
59907;SDS011;61804;54.926;73.496;2022-11-23T00:11:39;18.73;;;3.28;;
59907;SDS011;61804;54.926;73.496;2022-11-23T00:14:20;3.50;;;1.95;;
59907;SDS011;61804;54.926;73.496;2022-11-23T00:16:48;1.35;;;1.17;;
59907;SDS011;61804;54.926;73.496;2022-11-23T00:19:16;2.10;;;1.27;;
59907;SDS011;61804;54.926;73.496;2022-11-23T00:21:43;3.38;;;2.42;;
59907;SDS011;61804;54.926;73.496;2022-11-23T00:24:11;5.15;;;2.25;;
59907;SDS011;61804;54.926;73.496;2022-11-23T00:26:40;8.20;;;3.33;;
59907;SDS011;61804;54.926;73.496;2022-11-23T00:29:07;3.55;;;3.08;;
59907;SDS011;61804;54.926;73.496;2022-11-23T00:31:35;2.05;;;1.25;;
59907;SDS011;61804;54.926;73.496;2022-11-23T00:34:06;4.93;;;3.30;;
59907;SDS011;61804;54.926;73.496;2022-11-23T00:36:34;7.32;;;2.25;;
59907;SDS011;61804;54.926;73.496;2022-11-23T00:39:05;2.28;;;1.08;;
59907;SDS011;61804;54.926;73.496;2022-11-23T00:41:35;3.67;;;1.63;;
59907;SDS011;61804;54.926;73.496;2022-11-23T00:44:02;3.67;;;1.35;;
59907;SDS011;61804;54.926;73.496;2022-11-23T00:46:31;17.35;;;5.90;;
59907;SDS011;61804;54.926;73.496;2022-11-23T00:48:58;1.55;;;1.45;;
59907;SDS011;61804;54.926;73.496;2022-11-23T00:51:32;0.80;;;0.80;;
59907;SDS011;61804;54.926;73.496;2022-11-23T00:54:00;4.03;;;2.28;;
59907;SDS011;61804;54.926;73.496;2022-11-23T00:56:29;3.40;;;1.83;;
59907;SDS011;61804;54.926;73.496;2022-11-23T00:58:57;2.83;;;2.63;;
59907;SDS011;61804;54.926;73.496;2022-11-23T01:01:26;8.27;;;3.25;;
59907;SDS011;61804;54.926;73.496;2022-11-23T01:03:55;4.03;;;2.90;;
59907;SDS011;61804;54.926;73.496;2022-11-23T01:06:29;2.10;;;1.95;;
59907;SDS011;61804;54.926;73.496;2022-11-23T01:08:58;2.97;;;2.33;;
59907;SDS011;61804;54.926;73.496;2022-11-23T01:11:28;6.15;;;2.22;;
59907;SDS011;61804;54.926;73.496;2022-11-23T01:13:56;7.60;;;3.55;;
59907;SDS011;61804;54.926;73.496;2022-11-23T01:16:24;7.03;;;3.05;;
59907;SDS011;61804;54.926;73.496;2022-11-23T01:19:06;2.10;;;1.25;;
59907;SDS011;61804;54.926;73.496;2022-11-23T01:21:34;10.32;;;4.45;;
59907;SDS011;61804;54.926;73.496;2022-11-23T01:24:09;6.47;;;3.17;;
59907;SDS011;61804;54.926;73.496;2022-11-23T01:26:38;3.47;;;1.70;;
59907;SDS011;61804;54.926;73.496;2022-11-23T01:29:06;13.23;;;4.80;;
59907;SDS011;61804;54.926;73.496;2022-11-23T01:31:44;3.88;;;2.10;;
59907;SDS011;61804;54.926;73.496;2022-11-23T01:34:19;1.40;;;1.33;;
59907;SDS011;61804;54.926;73.496;2022-11-23T01:36:46;5.53;;;2.72;;
59907;SDS011;61804;54.926;73.496;2022-11-23T01:39:14;8.02;;;3.67;;
59907;SDS011;61804;54.926;73.496;2022-11-23T01:41:44;7.20;;;3.03;;
59907;SDS011;61804;54.926;73.496;2022-11-23T01:44:20;4.60;;;2.13;;
59907;SDS011;61804;54.926;73.496;2022-11-23T01:46:54;1.67;;;1.45;;
59907;SDS011;61804;54.926;73.496;2022-11-23T01:49:21;6.72;;;2.33;;
59907;SDS011;61804;54.926;73.496;2022-11-23T01:51:55;4.72;;;3.80;;
59907;SDS011;61804;54.926;73.496;2022-11-23T01:54:37;52.72;;;25.88;;
59907;SDS011;61804;54.926;73.496;2022-11-23T01:57:08;15.18;;;2.75;;
59907;SDS011;61804;54.926;73.496;2022-11-23T01:59:37;5.28;;;2.22;;
59907;SDS011;61804;54.926;73.496;2022-11-23T02:02:07;5.75;;;1.80;;
59907;SDS011;61804;54.926;73.496;2022-11-23T02:04:36;6.18;;;4.38;;
59907;SDS011;61804;54.926;73.496;2022-11-23T02:07:15;3.40;;;2.20;;
59907;SDS011;61804;54.926;73.496;2022-11-23T02:09:44;4.43;;;2.70;;
59907;SDS011;61804;54.926;73.496;2022-11-23T02:12:12;5.57;;;3.17;;
59907;SDS011;61804;54.926;73.496;2022-11-23T02:14:40;41.97;;;14.15;;
59907;SDS011;61804;54.926;73.496;2022-11-23T02:17:09;20.40;;;8.52;;
59907;SDS011;61804;54.926;73.496;2022-11-23T02:23:11;4.05;;;3.78;;
59907;SDS011;61804;54.926;73.496;2022-11-23T02:28:28;6.30;;;3.08;;
59907;SDS011;61804;54.926;73.496;2022-11-23T02:30:56;6.65;;;3.33;;
59907;SDS011;61804;54.926;73.496;2022-11-23T02:33:23;3.00;;;2.05;;
59907;SDS011;61804;54.926;73.496;2022-11-23T02:35:52;2.97;;;2.40;;
59907;SDS011;61804;54.926;73.496;2022-11-23T02:38:19;5.75;;;3.85;;
59907;SDS011;61804;54.926;73.496;2022-11-23T02:40:47;5.22;;;2.53;;
59907;SDS011;61804;54.926;73.496;2022-11-23T02:43:24;4.53;;;2.83;;
59907;SDS011;61804;54.926;73.496;2022-11-23T02:46:05;8.07;;;4.03;;
59907;SDS011;61804;54.926;73.496;2022-11-23T02:48:39;5.22;;;3.72;;
59907;SDS011;61804;54.926;73.496;2022-11-23T02:51:06;5.50;;;2.85;;
59907;SDS011;61804;54.926;73.496;2022-11-23T02:53:33;12.35;;;4.25;;
59907;SDS011;61804;54.926;73.496;2022-11-23T02:56:08;5.07;;;2.60;;
59907;SDS011;61804;54.926;73.496;2022-11-23T02:58:35;6.68;;;2.88;;
59907;SDS011;61804;54.926;73.496;2022-11-23T03:01:06;4.50;;;2.75;;
59907;SDS011;61804;54.926;73.496;2022-11-23T03:03:44;11.65;;;5.28;;
59907;SDS011;61804;54.926;73.496;2022-11-23T03:06:11;7.55;;;2.40;;
59907;SDS011;61804;54.926;73.496;2022-11-23T03:08:38;7.97;;;2.95;;
59907;SDS011;61804;54.926;73.496;2022-11-23T03:11:06;7.72;;;3.30;;
59907;SDS011;61804;54.926;73.496;2022-11-23T03:13:44;5.68;;;3.83;;
59907;SDS011;61804;54.926;73.496;2022-11-23T03:16:23;5.68;;;2.42;;
59907;SDS011;61804;54.926;73.496;2022-11-23T03:18:51;12.73;;;4.40;;
59907;SDS011;61804;54.926;73.496;2022-11-23T03:21:20;14.52;;;4.10;;
59907;SDS011;61804;54.926;73.496;2022-11-23T03:23:48;6.05;;;5.03;;
59907;SDS011;61804;54.926;73.496;2022-11-23T03:26:16;7.82;;;4.55;;
59907;SDS011;61804;54.926;73.496;2022-11-23T03:28:53;6.13;;;5.55;;
59907;SDS011;61804;54.926;73.496;2022-11-23T03:31:33;12.75;;;6.70;;
59907;SDS011;61804;54.926;73.496;2022-11-23T03:34:00;11.90;;;3.90;;
59907;SDS011;61804;54.926;73.496;2022-11-23T03:36:40;6.18;;;3.92;;
59907;SDS011;61804;54.926;73.496;2022-11-23T03:39:16;8.52;;;4.25;;
59907;SDS011;61804;54.926;73.496;2022-11-23T03:41:52;6.97;;;3.70;;
59907;SDS011;61804;54.926;73.496;2022-11-23T03:44:23;7.55;;;4.32;;
59907;SDS011;61804;54.926;73.496;2022-11-23T03:46:51;119.13;;;71.43;;
59907;SDS011;61804;54.926;73.496;2022-11-23T03:49:18;14.90;;;5.47;;
59907;SDS011;61804;54.926;73.496;2022-11-23T03:51:53;20.50;;;15.98;;
59907;SDS011;61804;54.926;73.496;2022-11-23T03:54:21;9.05;;;5.57;;
59907;SDS011;61804;54.926;73.496;2022-11-23T03:56:48;6.88;;;3.03;;
59907;SDS011;61804;54.926;73.496;2022-11-23T03:59:16;15.35;;;8.70;;
59907;SDS011;61804;54.926;73.496;2022-11-23T04:01:44;4.63;;;3.08;;
59907;SDS011;61804;54.926;73.496;2022-11-23T04:04:19;9.73;;;6.25;;
59907;SDS011;61804;54.926;73.496;2022-11-23T04:07:06;29.17;;;13.77;;
59907;SDS011;61804;54.926;73.496;2022-11-23T04:09:50;20.20;;;13.00;;
59907;SDS011;61804;54.926;73.496;2022-11-23T04:12:32;7.00;;;5.75;;
59907;SDS011;61804;54.926;73.496;2022-11-23T04:14:59;10.13;;;6.88;;
59907;SDS011;61804;54.926;73.496;2022-11-23T04:17:28;9.02;;;6.07;;
59907;SDS011;61804;54.926;73.496;2022-11-23T04:20:06;37.30;;;15.75;;
59907;SDS011;61804;54.926;73.496;2022-11-23T04:22:34;15.68;;;5.68;;
59907;SDS011;61804;54.926;73.496;2022-11-23T04:25:02;4.18;;;3.28;;
59907;SDS011;61804;54.926;73.496;2022-11-23T04:27:29;5.25;;;3.88;;
59907;SDS011;61804;54.926;73.496;2022-11-23T04:29:59;5.35;;;3.83;;
59907;SDS011;61804;54.926;73.496;2022-11-23T04:32:33;13.57;;;4.85;;
59907;SDS011;61804;54.926;73.496;2022-11-23T04:35:02;7.68;;;3.75;;
59907;SDS011;61804;54.926;73.496;2022-11-23T04:37:40;10.88;;;7.30;;
59907;SDS011;61804;54.926;73.496;2022-11-23T04:40:13;30.88;;;17.25;;
59907;SDS011;61804;54.926;73.496;2022-11-23T04:42:53;28.20;;;21.27;;
59907;SDS011;61804;54.926;73.496;2022-11-23T04:45:21;15.15;;;11.43;;
59907;SDS011;61804;54.926;73.496;2022-11-23T04:47:49;20.95;;;9.82;;
59907;SDS011;61804;54.926;73.496;2022-11-23T04:50:17;13.02;;;6.28;;
59907;SDS011;61804;54.926;73.496;2022-11-23T04:52:51;23.83;;;15.30;;
59907;SDS011;61804;54.926;73.496;2022-11-23T04:55:23;14.32;;;7.55;;
59907;SDS011;61804;54.926;73.496;2022-11-23T04:58:02;17.65;;;14.52;;
59907;SDS011;61804;54.926;73.496;2022-11-23T05:00:32;19.20;;;13.18;;
59907;SDS011;61804;54.926;73.496;2022-11-23T05:03:01;24.27;;;18.73;;
59907;SDS011;61804;54.926;73.496;2022-11-23T05:05:42;111.38;;;99.75;;
59907;SDS011;61804;54.926;73.496;2022-11-23T05:08:09;14.13;;;10.68;;
59907;SDS011;61804;54.926;73.496;2022-11-23T05:11:02;8.27;;;7.43;;
59907;SDS011;61804;54.926;73.496;2022-11-23T05:13:31;21.13;;;18.98;;
59907;SDS011;61804;54.926;73.496;2022-11-23T05:15:58;11.88;;;10.68;;
59907;SDS011;61804;54.926;73.496;2022-11-23T05:18:28;10.55;;;7.70;;
59907;SDS011;61804;54.926;73.496;2022-11-23T05:21:05;6.60;;;5.38;;
59907;SDS011;61804;54.926;73.496;2022-11-23T05:23:32;7.85;;;6.80;;
59907;SDS011;61804;54.926;73.496;2022-11-23T05:26:01;7.43;;;6.72;;
59907;SDS011;61804;54.926;73.496;2022-11-23T05:28:30;8.20;;;6.40;;
59907;SDS011;61804;54.926;73.496;2022-11-23T05:30:59;13.52;;;11.63;;
59907;SDS011;61804;54.926;73.496;2022-11-23T05:33:27;13.32;;;11.93;;
59907;SDS011;61804;54.926;73.496;2022-11-23T05:35:54;27.05;;;21.05;;
59907;SDS011;61804;54.926;73.496;2022-11-23T05:38:32;19.45;;;14.98;;
59907;SDS011;61804;54.926;73.496;2022-11-23T05:41:02;11.63;;;7.05;;
59907;SDS011;61804;54.926;73.496;2022-11-23T05:43:29;14.23;;;8.45;;
59907;SDS011;61804;54.926;73.496;2022-11-23T05:46:00;44.67;;;34.00;;
59907;SDS011;61804;54.926;73.496;2022-11-23T05:48:41;9.63;;;7.30;;
59907;SDS011;61804;54.926;73.496;2022-11-23T05:51:10;9.38;;;5.20;;
59907;SDS011;61804;54.926;73.496;2022-11-23T05:53:43;24.80;;;21.75;;
59907;SDS011;61804;54.926;73.496;2022-11-23T05:56:19;10.63;;;7.38;;
59907;SDS011;61804;54.926;73.496;2022-11-23T05:59:10;9.23;;;5.25;;
59907;SDS011;61804;54.926;73.496;2022-11-23T06:01:39;8.63;;;5.72;;
59907;SDS011;61804;54.926;73.496;2022-11-23T06:04:09;7.28;;;6.50;;
59907;SDS011;61804;54.926;73.496;2022-11-23T06:06:41;9.15;;;5.63;;
59907;SDS011;61804;54.926;73.496;2022-11-23T06:09:09;7.60;;;5.70;;
59907;SDS011;61804;54.926;73.496;2022-11-23T06:11:39;12.57;;;10.70;;
59907;SDS011;61804;54.926;73.496;2022-11-23T06:14:12;30.92;;;23.00;;
59907;SDS011;61804;54.926;73.496;2022-11-23T06:16:40;18.08;;;15.40;;
59907;SDS011;61804;54.926;73.496;2022-11-23T06:19:24;7.18;;;5.85;;
59907;SDS011;61804;54.926;73.496;2022-11-23T06:21:52;8.23;;;5.60;;
59907;SDS011;61804;54.926;73.496;2022-11-23T06:24:23;10.02;;;5.93;;
59907;SDS011;61804;54.926;73.496;2022-11-23T06:27:11;13.32;;;8.43;;
59907;SDS011;61804;54.926;73.496;2022-11-23T06:29:54;11.27;;;8.88;;
59907;SDS011;61804;54.926;73.496;2022-11-23T06:32:28;14.38;;;9.85;;
59907;SDS011;61804;54.926;73.496;2022-11-23T06:34:56;8.80;;;7.60;;
59907;SDS011;61804;54.926;73.496;2022-11-23T06:37:23;8.52;;;5.65;;
59907;SDS011;61804;54.926;73.496;2022-11-23T06:39:53;5.82;;;5.22;;
59907;SDS011;61804;54.926;73.496;2022-11-23T06:42:20;15.38;;;6.70;;
59907;SDS011;61804;54.926;73.496;2022-11-23T06:44:48;10.70;;;4.50;;
59907;SDS011;61804;54.926;73.496;2022-11-23T06:47:20;9.48;;;6.47;;
59907;SDS011;61804;54.926;73.496;2022-11-23T06:49:48;12.63;;;6.45;;
59907;SDS011;61804;54.926;73.496;2022-11-23T06:52:24;6.03;;;4.60;;
59907;SDS011;61804;54.926;73.496;2022-11-23T06:54:52;18.92;;;6.43;;
59907;SDS011;61804;54.926;73.496;2022-11-23T06:57:21;7.70;;;6.30;;
59907;SDS011;61804;54.926;73.496;2022-11-23T06:59:50;9.10;;;6.15;;
59907;SDS011;61804;54.926;73.496;2022-11-23T07:02:22;12.95;;;9.02;;
59907;SDS011;61804;54.926;73.496;2022-11-23T07:05:01;5.70;;;4.75;;
59907;SDS011;61804;54.926;73.496;2022-11-23T07:07:30;7.60;;;5.22;;
59907;SDS011;61804;54.926;73.496;2022-11-23T07:10:14;12.82;;;7.53;;
59907;SDS011;61804;54.926;73.496;2022-11-23T07:12:45;17.08;;;6.38;;
59907;SDS011;61804;54.926;73.496;2022-11-23T07:15:14;19.67;;;8.30;;
59907;SDS011;61804;54.926;73.496;2022-11-23T07:17:48;10.20;;;7.55;;
59907;SDS011;61804;54.926;73.496;2022-11-23T07:20:29;47.55;;;9.05;;
59907;SDS011;61804;54.926;73.496;2022-11-23T07:23:01;12.10;;;6.35;;
59907;SDS011;61804;54.926;73.496;2022-11-23T07:25:41;12.90;;;7.57;;
59907;SDS011;61804;54.926;73.496;2022-11-23T07:28:10;10.30;;;4.68;;
59907;SDS011;61804;54.926;73.496;2022-11-23T07:30:51;16.55;;;7.03;;
59907;SDS011;61804;54.926;73.496;2022-11-23T07:33:29;12.73;;;5.32;;
59907;SDS011;61804;54.926;73.496;2022-11-23T07:36:07;13.98;;;7.82;;
59907;SDS011;61804;54.926;73.496;2022-11-23T07:38:46;14.68;;;10.63;;
59907;SDS011;61804;54.926;73.496;2022-11-23T07:41:18;9.98;;;6.60;;
59907;SDS011;61804;54.926;73.496;2022-11-23T07:44:11;11.55;;;6.40;;
59907;SDS011;61804;54.926;73.496;2022-11-23T07:46:38;13.85;;;8.88;;
59907;SDS011;61804;54.926;73.496;2022-11-23T07:49:06;11.52;;;7.57;;
59907;SDS011;61804;54.926;73.496;2022-11-23T07:51:34;6.45;;;5.30;;
59907;SDS011;61804;54.926;73.496;2022-11-23T07:54:02;13.15;;;7.88;;
59907;SDS011;61804;54.926;73.496;2022-11-23T07:56:30;8.18;;;7.13;;
59907;SDS011;61804;54.926;73.496;2022-11-23T07:58:57;10.90;;;6.22;;
59907;SDS011;61804;54.926;73.496;2022-11-23T08:01:25;8.88;;;7.70;;
59907;SDS011;61804;54.926;73.496;2022-11-23T08:03:57;18.38;;;6.57;;
59907;SDS011;61804;54.926;73.496;2022-11-23T08:06:25;12.57;;;7.03;;
59907;SDS011;61804;54.926;73.496;2022-11-23T08:09:03;10.95;;;6.22;;
59907;SDS011;61804;54.926;73.496;2022-11-23T08:11:31;5.72;;;4.18;;
59907;SDS011;61804;54.926;73.496;2022-11-23T08:13:59;15.25;;;7.72;;
59907;SDS011;61804;54.926;73.496;2022-11-23T08:16:26;20.23;;;9.50;;
59907;SDS011;61804;54.926;73.496;2022-11-23T08:18:53;15.95;;;8.52;;
59907;SDS011;61804;54.926;73.496;2022-11-23T08:21:20;16.00;;;10.27;;
59907;SDS011;61804;54.926;73.496;2022-11-23T08:23:47;12.50;;;7.07;;
59907;SDS011;61804;54.926;73.496;2022-11-23T08:26:18;29.27;;;6.70;;
59907;SDS011;61804;54.926;73.496;2022-11-23T08:28:46;18.85;;;8.75;;
59907;SDS011;61804;54.926;73.496;2022-11-23T08:31:14;9.07;;;5.90;;
59907;SDS011;61804;54.926;73.496;2022-11-23T08:33:41;18.77;;;11.65;;
59907;SDS011;61804;54.926;73.496;2022-11-23T08:36:09;13.52;;;7.72;;
59907;SDS011;61804;54.926;73.496;2022-11-23T08:38:37;16.45;;;8.70;;
59907;SDS011;61804;54.926;73.496;2022-11-23T08:41:04;35.55;;;8.70;;
59907;SDS011;61804;54.926;73.496;2022-11-23T08:43:34;14.18;;;9.13;;
59907;SDS011;61804;54.926;73.496;2022-11-23T08:46:04;13.95;;;7.78;;
59907;SDS011;61804;54.926;73.496;2022-11-23T08:48:31;14.80;;;7.28;;
59907;SDS011;61804;54.926;73.496;2022-11-23T08:50:58;13.38;;;10.43;;
59907;SDS011;61804;54.926;73.496;2022-11-23T08:53:26;25.33;;;11.35;;
59907;SDS011;61804;54.926;73.496;2022-11-23T08:55:54;20.52;;;10.00;;
59907;SDS011;61804;54.926;73.496;2022-11-23T08:58:22;23.58;;;11.57;;
59907;SDS011;61804;54.926;73.496;2022-11-23T09:00:49;16.95;;;10.80;;
59907;SDS011;61804;54.926;73.496;2022-11-23T09:03:16;21.40;;;10.02;;
59907;SDS011;61804;54.926;73.496;2022-11-23T09:05:49;18.02;;;7.13;;
59907;SDS011;61804;54.926;73.496;2022-11-23T09:08:17;23.80;;;9.98;;
59907;SDS011;61804;54.926;73.496;2022-11-23T09:10:44;22.45;;;10.05;;
59907;SDS011;61804;54.926;73.496;2022-11-23T09:13:11;21.83;;;11.85;;
59907;SDS011;61804;54.926;73.496;2022-11-23T09:15:39;21.83;;;9.55;;
59907;SDS011;61804;54.926;73.496;2022-11-23T09:18:06;32.92;;;11.85;;
59907;SDS011;61804;54.926;73.496;2022-11-23T09:20:43;28.13;;;11.07;;
59907;SDS011;61804;54.926;73.496;2022-11-23T09:23:21;20.38;;;11.25;;
59907;SDS011;61804;54.926;73.496;2022-11-23T09:25:59;17.70;;;10.55;;
59907;SDS011;61804;54.926;73.496;2022-11-23T09:28:27;19.52;;;13.10;;
59907;SDS011;61804;54.926;73.496;2022-11-23T09:30:55;17.65;;;12.48;;
59907;SDS011;61804;54.926;73.496;2022-11-23T09:33:23;18.75;;;10.45;;
59907;SDS011;61804;54.926;73.496;2022-11-23T09:35:57;31.73;;;10.43;;
59907;SDS011;61804;54.926;73.496;2022-11-23T09:38:26;25.85;;;9.40;;
59907;SDS011;61804;54.926;73.496;2022-11-23T09:43:59;15.32;;;9.77;;
59907;SDS011;61804;54.926;73.496;2022-11-23T09:46:32;16.23;;;7.95;;
59907;SDS011;61804;54.926;73.496;2022-11-23T09:49:08;16.08;;;9.07;;
59907;SDS011;61804;54.926;73.496;2022-11-23T09:51:37;10.75;;;9.13;;
59907;SDS011;61804;54.926;73.496;2022-11-23T09:56:41;15.77;;;10.13;;
59907;SDS011;61804;54.926;73.496;2022-11-23T10:01:49;15.88;;;11.77;;
59907;SDS011;61804;54.926;73.496;2022-11-23T10:04:16;18.38;;;12.68;;
59907;SDS011;61804;54.926;73.496;2022-11-23T10:06:56;13.25;;;9.50;;
59907;SDS011;61804;54.926;73.496;2022-11-23T10:17:30;10.55;;;7.03;;
59907;SDS011;61804;54.926;73.496;2022-11-23T10:25:49;18.02;;;9.98;;
59907;SDS011;61804;54.926;73.496;2022-11-23T10:28:19;37.88;;;22.35;;
59907;SDS011;61804;54.926;73.496;2022-11-23T10:31:00;25.17;;;16.08;;
59907;SDS011;61804;54.926;73.496;2022-11-23T10:33:35;23.02;;;12.68;;
59907;SDS011;61804;54.926;73.496;2022-11-23T10:36:04;16.00;;;9.18;;
59907;SDS011;61804;54.926;73.496;2022-11-23T10:38:32;30.52;;;17.70;;
59907;SDS011;61804;54.926;73.496;2022-11-23T10:41:04;30.65;;;16.27;;
59907;SDS011;61804;54.926;73.496;2022-11-23T10:43:43;24.63;;;15.75;;
59907;SDS011;61804;54.926;73.496;2022-11-23T10:46:27;19.60;;;15.63;;
59907;SDS011;61804;54.926;73.496;2022-11-23T10:52:29;24.05;;;14.60;;
59907;SDS011;61804;54.926;73.496;2022-11-23T10:54:58;31.90;;;17.02;;
59907;SDS011;61804;54.926;73.496;2022-11-23T10:59:59;27.17;;;16.58;;
59907;SDS011;61804;54.926;73.496;2022-11-23T11:02:28;35.83;;;18.65;;
59907;SDS011;61804;54.926;73.496;2022-11-23T11:05:37;28.33;;;15.98;;
59907;SDS011;61804;54.926;73.496;2022-11-23T11:07:59;47.95;;;29.20;;
59907;SDS011;61804;54.926;73.496;2022-11-23T11:10:33;46.65;;;24.30;;
59907;SDS011;61804;54.926;73.496;2022-11-23T11:13:22;46.63;;;22.50;;
59907;SDS011;61804;54.926;73.496;2022-11-23T11:15:54;48.80;;;24.33;;
59907;SDS011;61804;54.926;73.496;2022-11-23T11:18:33;45.33;;;25.55;;
59907;SDS011;61804;54.926;73.496;2022-11-23T11:23:51;27.70;;;11.18;;
59907;SDS011;61804;54.926;73.496;2022-11-23T11:26:20;15.25;;;11.35;;
59907;SDS011;61804;54.926;73.496;2022-11-23T11:29:01;19.65;;;15.90;;
59907;SDS011;61804;54.926;73.496;2022-11-23T11:36:54;36.78;;;21.50;;
59907;SDS011;61804;54.926;73.496;2022-11-23T11:39:28;59.30;;;29.98;;
59907;SDS011;61804;54.926;73.496;2022-11-23T11:41:57;41.15;;;22.73;;
59907;SDS011;61804;54.926;73.496;2022-11-23T11:44:27;39.85;;;23.77;;
59907;SDS011;61804;54.926;73.496;2022-11-23T11:46:59;35.72;;;25.70;;
59907;SDS011;61804;54.926;73.496;2022-11-23T11:49:32;42.42;;;21.00;;
59907;SDS011;61804;54.926;73.496;2022-11-23T11:52:06;43.22;;;25.13;;
59907;SDS011;61804;54.926;73.496;2022-11-23T11:54:47;36.00;;;20.58;;
59907;SDS011;61804;54.926;73.496;2022-11-23T11:57:21;101.47;;;50.90;;
59907;SDS011;61804;54.926;73.496;2022-11-23T12:00:02;98.82;;;57.25;;
59907;SDS011;61804;54.926;73.496;2022-11-23T12:05:22;106.00;;;55.50;;
59907;SDS011;61804;54.926;73.496;2022-11-23T12:08:39;156.52;;;88.25;;
59907;SDS011;61804;54.926;73.496;2022-11-23T12:10:52;123.43;;;65.50;;
59907;SDS011;61804;54.926;73.496;2022-11-23T12:13:23;86.13;;;49.92;;
59907;SDS011;61804;54.926;73.496;2022-11-23T12:16:14;159.60;;;85.13;;
59907;SDS011;61804;54.926;73.496;2022-11-23T12:21:37;97.50;;;60.50;;
59907;SDS011;61804;54.926;73.496;2022-11-23T12:31:49;195.15;;;112.35;;
59907;SDS011;61804;54.926;73.496;2022-11-23T12:40:13;276.05;;;159.45;;
59907;SDS011;61804;54.926;73.496;2022-11-23T12:42:47;227.00;;;125.10;;
59907;SDS011;61804;54.926;73.496;2022-11-23T12:51:32;121.38;;;74.88;;
59907;SDS011;61804;54.926;73.496;2022-11-23T12:59:00;166.48;;;95.68;;
59907;SDS011;61804;54.926;73.496;2022-11-23T13:01:31;139.50;;;80.68;;
59907;SDS011;61804;54.926;73.496;2022-11-23T13:09:53;105.13;;;56.38;;
59907;SDS011;61804;54.926;73.496;2022-11-23T13:22:50;162.50;;;92.53;;
59907;SDS011;61804;54.926;73.496;2022-11-23T13:25:28;153.18;;;87.55;;
59907;SDS011;61804;54.926;73.496;2022-11-23T13:33:47;142.30;;;79.85;;
59907;SDS011;61804;54.926;73.496;2022-11-23T13:39:03;147.82;;;78.10;;
59907;SDS011;61804;54.926;73.496;2022-11-23T13:49:39;138.95;;;90.10;;
59907;SDS011;61804;54.926;73.496;2022-11-23T13:57:33;120.28;;;72.10;;
59907;SDS011;61804;54.926;73.496;2022-11-23T14:03:04;121.63;;;67.00;;
59907;SDS011;61804;54.926;73.496;2022-11-23T14:08:26;114.13;;;63.08;;
59907;SDS011;61804;54.926;73.496;2022-11-23T14:11:11;108.07;;;66.13;;
59907;SDS011;61804;54.926;73.496;2022-11-23T14:13:39;122.63;;;70.03;;
59907;SDS011;61804;54.926;73.496;2022-11-23T14:16:08;159.10;;;87.70;;
59907;SDS011;61804;54.926;73.496;2022-11-23T14:34:18;207.27;;;128.65;;
59907;SDS011;61804;54.926;73.496;2022-11-23T14:42:09;202.90;;;114.95;;
59907;SDS011;61804;54.926;73.496;2022-11-23T14:44:43;174.73;;;98.65;;
59907;SDS011;61804;54.926;73.496;2022-11-23T14:47:27;205.02;;;124.45;;
59907;SDS011;61804;54.926;73.496;2022-11-23T14:49:56;199.95;;;110.20;;
59907;SDS011;61804;54.926;73.496;2022-11-23T14:52:27;228.63;;;131.52;;
59907;SDS011;61804;54.926;73.496;2022-11-23T14:54:56;205.80;;;121.13;;
59907;SDS011;61804;54.926;73.496;2022-11-23T14:57:29;261.85;;;149.80;;
59907;SDS011;61804;54.926;73.496;2022-11-23T15:00:04;232.65;;;127.07;;
59907;SDS011;61804;54.926;73.496;2022-11-23T15:02:39;251.52;;;139.82;;
59907;SDS011;61804;54.926;73.496;2022-11-23T15:07:48;175.68;;;106.00;;
59907;SDS011;61804;54.926;73.496;2022-11-23T15:13:17;157.70;;;85.93;;
59907;SDS011;61804;54.926;73.496;2022-11-23T15:15:57;160.02;;;90.63;;
59907;SDS011;61804;54.926;73.496;2022-11-23T15:18:32;155.38;;;93.97;;
59907;SDS011;61804;54.926;73.496;2022-11-23T15:21:02;158.48;;;95.63;;
59907;SDS011;61804;54.926;73.496;2022-11-23T15:23:43;147.85;;;86.57;;
59907;SDS011;61804;54.926;73.496;2022-11-23T15:26:13;181.13;;;105.70;;
59907;SDS011;61804;54.926;73.496;2022-11-23T15:28:41;198.98;;;119.88;;
59907;SDS011;61804;54.926;73.496;2022-11-23T15:33:52;212.80;;;118.75;;
59907;SDS011;61804;54.926;73.496;2022-11-23T15:36:25;280.35;;;158.60;;
59907;SDS011;61804;54.926;73.496;2022-11-23T15:38:59;223.27;;;121.70;;
59907;SDS011;61804;54.926;73.496;2022-11-23T15:41:38;229.40;;;121.97;;
59907;SDS011;61804;54.926;73.496;2022-11-23T15:44:25;260.27;;;144.00;;
59907;SDS011;61804;54.926;73.496;2022-11-23T15:46:57;249.95;;;149.43;;
59907;SDS011;61804;54.926;73.496;2022-11-23T15:49:26;212.88;;;119.03;;
59907;SDS011;61804;54.926;73.496;2022-11-23T15:52:02;194.10;;;95.97;;
59907;SDS011;61804;54.926;73.496;2022-11-23T15:54:36;185.65;;;98.72;;
59907;SDS011;61804;54.926;73.496;2022-11-23T15:57:05;383.63;;;157.52;;
59907;SDS011;61804;54.926;73.496;2022-11-23T16:02:04;213.45;;;88.85;;
59907;SDS011;61804;54.926;73.496;2022-11-23T16:04:37;180.65;;;90.75;;
59907;SDS011;61804;54.926;73.496;2022-11-23T16:07:16;146.23;;;67.90;;
59907;SDS011;61804;54.926;73.496;2022-11-23T16:09:44;129.85;;;63.78;;
59907;SDS011;61804;54.926;73.496;2022-11-23T16:12:30;114.70;;;58.15;;
59907;SDS011;61804;54.926;73.496;2022-11-23T16:15:28;135.50;;;60.88;;
59907;SDS011;61804;54.926;73.496;2022-11-23T16:18:00;203.15;;;93.07;;
59907;SDS011;61804;54.926;73.496;2022-11-23T16:20:28;128.20;;;66.38;;
59907;SDS011;61804;54.926;73.496;2022-11-23T16:23:00;196.68;;;96.22;;
59907;SDS011;61804;54.926;73.496;2022-11-23T16:25:31;130.93;;;67.85;;
59907;SDS011;61804;54.926;73.496;2022-11-23T16:28:00;84.28;;;52.40;;
59907;SDS011;61804;54.926;73.496;2022-11-23T16:30:34;76.75;;;51.33;;
59907;SDS011;61804;54.926;73.496;2022-11-23T16:33:03;126.15;;;51.20;;
59907;SDS011;61804;54.926;73.496;2022-11-23T16:35:42;142.63;;;62.45;;
59907;SDS011;61804;54.926;73.496;2022-11-23T16:38:10;126.68;;;66.80;;
59907;SDS011;61804;54.926;73.496;2022-11-23T16:40:45;174.80;;;76.47;;
59907;SDS011;61804;54.926;73.496;2022-11-23T16:43:15;152.77;;;68.70;;
59907;SDS011;61804;54.926;73.496;2022-11-23T16:45:45;116.00;;;57.90;;
59907;SDS011;61804;54.926;73.496;2022-11-23T16:48:34;116.18;;;54.40;;
59907;SDS011;61804;54.926;73.496;2022-11-23T16:51:12;84.13;;;45.00;;
59907;SDS011;61804;54.926;73.496;2022-11-23T16:53:43;90.93;;;38.15;;
59907;SDS011;61804;54.926;73.496;2022-11-23T16:56:21;94.90;;;48.63;;
59907;SDS011;61804;54.926;73.496;2022-11-23T16:58:48;110.22;;;56.50;;
59907;SDS011;61804;54.926;73.496;2022-11-23T17:01:18;87.63;;;48.88;;
59907;SDS011;61804;54.926;73.496;2022-11-23T17:03:55;103.47;;;57.60;;
59907;SDS011;61804;54.926;73.496;2022-11-23T17:06:32;104.13;;;54.45;;
59907;SDS011;61804;54.926;73.496;2022-11-23T17:09:00;130.45;;;65.97;;
59907;SDS011;61804;54.926;73.496;2022-11-23T17:11:27;140.40;;;71.47;;
59907;SDS011;61804;54.926;73.496;2022-11-23T17:14:00;133.10;;;79.72;;